Time;durP1;ratioP1;P1;durP2;ratioP2;P2;SDS_P1;SDS_P2;PMS_P1;PMS_P2;Temp;Humidity;BMP_temperature;BMP_pressure;BME280_temperature;BME280_humidity;BME280_pressure;Samples;Min_cycle;Max_cycle;Signal;HPM_P1;HPM_P2
2024/01/14 00:00:00;;;;;;;7.10;5.90;;;;;;;-1.70;95.64;95647.19;108376;1275;137582;-86
2024/01/14 00:02:26;;;;;;;9.30;7.10;;;;;;;-1.70;95.71;95647.02;108478;1281;22571;-87
2024/01/14 00:04:53;;;;;;;8.50;7.00;;;;;;;-1.69;95.93;95642.17;108355;1273;138165;-89
2024/01/14 00:07:20;;;;;;;10.20;6.50;;;;;;;-1.66;95.96;95634.98;108480;1278;22523;-89
2024/01/14 00:09:47;;;;;;;10.40;7.10;;;;;;;-1.62;95.84;95634.71;108478;1282;25462;-88
2024/01/14 00:12:14;;;;;;;7.70;5.90;;;;;;;-1.62;96.15;95632.98;108506;1274;137619;-88
2024/01/14 00:14:41;;;;;;;7.80;6.40;;;;;;;-1.61;95.99;95628.70;108436;1282;22600;-86
2024/01/14 00:17:08;;;;;;;6.10;5.40;;;;;;;-1.61;95.84;95626.66;108308;1280;137637;-86
2024/01/14 00:19:35;;;;;;;9.30;6.80;;;;;;;-1.62;96.35;95619.77;108409;1281;22635;-86
2024/01/14 00:22:02;;;;;;;6.50;5.90;;;;;;;-1.61;96.11;95624.11;108383;1279;25441;-87
2024/01/14 00:24:28;;;;;;;7.80;6.30;;;;;;;-1.59;96.14;95625.25;108510;1274;137952;-88
2024/01/14 00:26:55;;;;;;;10.40;7.10;;;;;;;-1.55;96.41;95621.02;108465;1282;22577;-88
2024/01/14 00:29:22;;;;;;;7.70;6.30;;;;;;;-1.53;96.30;95624.58;108314;1282;138061;-86
2024/01/14 00:31:48;;;;;;;8.60;6.50;;;;;;;-1.53;96.56;95622.32;108507;1282;23481;-86
2024/01/14 00:34:15;;;;;;;10.20;7.00;;;;;;;-1.56;96.85;95619.20;108346;1265;138029;-86
2024/01/14 00:36:42;;;;;;;8.60;6.30;;;;;;;-1.57;97.06;95618.84;108625;1281;23178;-87
2024/01/14 00:39:10;;;;;;;7.70;6.90;;;;;;;-1.59;97.14;95616.91;108355;1278;22618;-86
2024/01/14 00:41:36;;;;;;;9.50;7.30;;;;;;;-1.58;96.93;95611.58;108242;1281;138415;-86
2024/01/14 00:44:03;;;;;;;10.60;6.90;;;;;;;-1.55;96.75;95613.38;108422;1280;22628;-88
2024/01/14 00:46:31;;;;;;;10.30;7.90;;;;;;;-1.52;96.92;95610.42;108530;1275;138433;-86
2024/01/14 00:48:58;;;;;;;8.40;7.40;;;;;;;-1.50;96.91;95609.21;108324;1282;23961;-88
2024/01/14 00:51:24;;;;;;;7.90;6.50;;;;;;;-1.50;97.02;95600.20;108504;1281;22544;-86
2024/01/14 00:53:51;;;;;;;7.50;6.30;;;;;;;-1.49;96.92;95602.67;108453;1276;137803;-88
2024/01/14 00:56:18;;;;;;;8.00;6.20;;;;;;;-1.50;96.89;95600.90;108492;1273;24249;-87
2024/01/14 00:58:44;;;;;;;7.80;7.00;;;;;;;-1.50;96.97;95595.98;108419;1276;138185;-86
2024/01/14 01:01:11;;;;;;;8.50;6.80;;;;;;;-1.50;97.01;95582.73;108517;1276;22598;-88
2024/01/14 01:03:38;;;;;;;8.90;7.20;;;;;;;-1.47;97.08;95581.50;108463;1275;22734;-87
2024/01/14 01:06:05;;;;;;;7.20;5.80;;;;;;;-1.43;96.61;95577.94;108381;1276;137893;-86
2024/01/14 01:08:32;;;;;;;9.20;6.90;;;;;;;-1.39;96.50;95576.23;108424;1283;22604;-86
2024/01/14 01:11:00;;;;;;;6.70;5.40;;;;;;;-1.36;96.74;95570.70;108443;1276;137440;-88
2024/01/14 01:13:26;;;;;;;8.80;6.30;;;;;;;-1.37;96.79;95571.77;108501;1282;22605;-87
2024/01/14 01:15:53;;;;;;;9.70;6.40;;;;;;;-1.39;96.61;95565.17;108534;1281;25324;-88
2024/01/14 01:18:20;;;;;;;9.00;6.80;;;;;;;-1.39;96.52;95566.04;108389;1282;138340;-86
2024/01/14 01:20:48;;;;;;;8.80;6.90;;;;;;;-1.38;96.54;95560.33;108396;1282;22545;-87
2024/01/14 01:23:15;;;;;;;7.30;5.50;;;;;;;-1.40;96.50;95550.80;108310;1282;138293;-87
2024/01/14 01:25:42;;;;;;;8.10;7.00;;;;;;;-1.36;96.42;95554.70;108487;1269;22556;-88
2024/01/14 01:28:09;;;;;;;8.10;6.50;;;;;;;-1.33;96.48;95560.60;108354;1278;137601;-87
2024/01/14 01:30:36;;;;;;;8.20;6.50;;;;;;;-1.34;96.63;95550.97;108536;1281;22628;-86
2024/01/14 01:33:03;;;;;;;9.10;6.80;;;;;;;-1.35;96.53;95549.86;108493;1278;22724;-85
2024/01/14 01:35:30;;;;;;;8.20;6.30;;;;;;;-1.35;96.44;95544.58;108479;1276;138385;-85
2024/01/14 01:37:57;;;;;;;8.10;6.40;;;;;;;-1.33;96.56;95547.48;108509;1276;27339;-86
2024/01/14 01:40:23;;;;;;;8.00;6.70;;;;;;;-1.30;96.56;95548.23;108470;1276;138442;-86
2024/01/14 01:42:50;;;;;;;7.80;6.20;;;;;;;-1.28;96.56;95542.29;108495;1282;22566;-86
2024/01/14 01:45:17;;;;;;;8.00;6.20;;;;;;;-1.26;96.55;95540.73;108520;1277;23810;-86
2024/01/14 01:47:43;;;;;;;9.20;8.10;;;;;;;-1.24;96.39;95534.48;108387;1279;138160;-86
2024/01/14 01:50:10;;;;;;;9.10;6.50;;;;;;;-1.25;96.27;95534.81;108499;1277;22640;-86
2024/01/14 01:52:37;;;;;;;7.80;6.20;;;;;;;-1.27;96.33;95536.63;108378;1282;138178;-88
2024/01/14 01:55:04;;;;;;;7.20;5.60;;;;;;;-1.28;96.50;95533.81;108424;1280;22751;-88
2024/01/14 01:57:31;;;;;;;6.10;4.90;;;;;;;-1.27;96.33;95533.35;108510;1278;24585;-87
2024/01/14 01:59:58;;;;;;;6.50;5.80;;;;;;;-1.25;96.56;95533.33;108401;1276;138363;-87
2024/01/14 02:02:24;;;;;;;5.50;5.00;;;;;;;-1.24;96.28;95529.71;108421;1278;24301;-87
2024/01/14 02:04:51;;;;;;;7.80;6.00;;;;;;;-1.25;96.46;95524.88;108334;1273;137624;-87
2024/01/14 02:07:20;;;;;;;7.60;5.80;;;;;;;-1.27;96.61;95520.52;108526;1278;22843;-86
2024/01/14 02:09:47;;;;;;;6.70;6.00;;;;;;;-1.28;96.56;95511.03;108554;1280;22660;-86
2024/01/14 02:12:17;;;;;;;6.80;5.30;;;;;;;-1.27;96.42;95510.45;108549;1276;138984;-86
2024/01/14 02:14:44;;;;;;;9.20;7.40;;;;;;;-1.27;96.51;95508.24;108498;1277;24187;-85
2024/01/14 02:17:13;;;;;;;7.70;6.40;;;;;;;-1.29;96.54;95504.02;108367;1282;137676;-86
2024/01/14 02:19:40;;;;;;;7.60;5.80;;;;;;;-1.31;96.52;95505.73;108429;1274;22745;-86
2024/01/14 02:22:19;;;;;;;6.30;5.10;;;;;;;-1.31;96.69;95500.62;108288;1273;137994;-87
2024/01/14 02:24:46;;;;;;;8.10;5.80;;;;;;;-1.31;96.62;95498.20;108462;1283;24167;-85
2024/01/14 02:27:13;;;;;;;7.80;7.00;;;;;;;-1.33;96.63;95489.75;108512;1281;25441;-85
2024/01/14 02:29:39;;;;;;;6.70;5.50;;;;;;;-1.34;96.94;95488.27;108269;1282;138296;-86
2024/01/14 02:32:06;;;;;;;7.70;5.80;;;;;;;-1.33;96.76;95486.16;108443;1277;22575;-86
2024/01/14 02:34:35;;;;;;;6.70;5.40;;;;;;;-1.31;96.95;95478.38;108451;1281;137895;-86
2024/01/14 02:37:02;;;;;;;6.60;5.70;;;;;;;-1.32;96.82;95479.92;108468;1280;23972;-86
2024/01/14 02:39:29;;;;;;;7.60;6.10;;;;;;;-1.32;96.77;95479.27;108319;1283;24205;-85
2024/01/14 02:41:56;;;;;;;8.30;6.20;;;;;;;-1.33;96.74;95474.63;108412;1281;138339;-86
2024/01/14 02:44:23;;;;;;;6.70;5.90;;;;;;;-1.32;96.83;95476.74;108525;1282;22602;-86
2024/01/14 02:46:49;;;;;;;7.70;6.10;;;;;;;-1.31;96.74;95470.17;108405;1281;138246;-86
2024/01/14 02:49:16;;;;;;;5.70;5.10;;;;;;;-1.28;96.87;95470.63;108517;1277;24282;-86
2024/01/14 02:51:45;;;;;;;7.30;5.70;;;;;;;-1.26;96.85;95462.48;108386;1281;22555;-86
2024/01/14 02:54:12;;;;;;;6.80;5.50;;;;;;;-1.26;97.17;95460.73;108505;1282;137455;-86
2024/01/14 02:56:39;;;;;;;6.40;5.60;;;;;;;-1.28;97.06;95453.41;108420;1281;22608;-86
2024/01/14 02:59:05;;;;;;;7.40;5.50;;;;;;;-1.30;97.08;95446.16;108448;1275;137873;-85
2024/01/14 03:01:32;;;;;;;7.70;6.10;;;;;;;-1.27;96.92;95447.61;108546;1277;22997;-86
2024/01/14 03:03:59;;;;;;;6.90;5.70;;;;;;;-1.27;97.00;95437.72;108519;1273;22597;-85
2024/01/14 03:06:26;;;;;;;6.70;5.80;;;;;;;-1.26;96.94;95437.15;108447;1278;137600;-86
2024/01/14 03:08:52;;;;;;;6.70;5.80;;;;;;;-1.26;96.86;95433.88;108338;1282;23309;-85
2024/01/14 03:11:21;;;;;;;8.40;6.30;;;;;;;-1.25;97.10;95432.98;108325;1277;137443;-86
2024/01/14 03:13:48;;;;;;;7.60;5.80;;;;;;;-1.25;97.00;95432.13;108437;1281;24234;-86
2024/01/14 03:16:15;;;;;;;7.00;6.00;;;;;;;-1.24;97.27;95433.18;108275;1278;138663;-86
2024/01/14 03:18:41;;;;;;;5.80;5.10;;;;;;;-1.20;97.16;95438.48;108548;1282;22598;-87
2024/01/14 03:21:08;;;;;;;6.60;5.30;;;;;;;-1.16;97.01;95434.46;108563;1276;22574;-88
2024/01/14 03:23:34;;;;;;;6.20;5.60;;;;;;;-1.14;96.88;95430.19;108422;1275;137742;-87
2024/01/14 03:26:01;;;;;;;6.70;5.30;;;;;;;-1.15;97.30;95423.80;108461;1283;22572;-85
2024/01/14 03:28:28;;;;;;;7.80;5.70;;;;;;;-1.17;97.15;95422.27;108215;1282;137590;-85
2024/01/14 03:30:55;;;;;;;7.30;5.60;;;;;;;-1.19;97.24;95422.79;108483;1277;22667;-86
2024/01/14 03:33:22;;;;;;;6.70;4.90;;;;;;;-1.18;97.33;95428.16;108517;1275;25439;-85
2024/01/14 03:35:49;;;;;;;6.70;5.60;;;;;;;-1.19;97.21;95425.85;108396;1282;137787;-85
2024/01/14 03:38:15;;;;;;;5.30;4.20;;;;;;;-1.19;97.53;95420.11;108479;1275;22523;-85
2024/01/14 03:40:42;;;;;;;7.90;5.80;;;;;;;-1.22;97.38;95407.52;108322;1259;137691;-86
2024/01/14 03:43:09;;;;;;;6.20;5.60;;;;;;;-1.22;97.48;95406.23;108533;1276;22633;-87
2024/01/14 03:45:36;;;;;;;8.10;5.70;;;;;;;-1.22;97.38;95406.19;108419;1284;22565;-86
2024/01/14 03:48:03;;;;;;;5.60;4.50;;;;;;;-1.19;97.46;95401.41;108475;1275;139125;-86
2024/01/14 03:50:29;;;;;;;6.60;5.60;;;;;;;-1.17;97.21;95406.69;108456;1283;22626;-86
2024/01/14 03:52:56;;;;;;;7.10;5.70;;;;;;;-1.17;97.35;95406.48;108360;1278;138102;-86
2024/01/14 03:55:23;;;;;;;7.00;5.30;;;;;;;-1.16;97.56;95401.16;108519;1281;22728;-88
2024/01/14 03:57:50;;;;;;;6.70;5.50;;;;;;;-1.17;97.30;95400.35;108496;1281;22620;-86
2024/01/14 04:00:16;;;;;;;8.30;6.70;;;;;;;-1.15;97.41;95402.58;108385;1277;138224;-86
2024/01/14 04:02:43;;;;;;;6.50;5.10;;;;;;;-1.13;97.61;95399.98;108395;1275;22524;-86
2024/01/14 04:05:10;;;;;;;6.50;5.80;;;;;;;-1.09;97.50;95397.10;108295;1281;137874;-86
2024/01/14 04:07:37;;;;;;;6.80;5.50;;;;;;;-1.08;97.33;95396.67;108405;1277;22556;-86
2024/01/14 04:10:08;;;;;;;7.20;6.00;;;;;;;-1.08;97.49;95390.77;108434;1280;22683;-86
2024/01/14 04:12:35;;;;;;;5.80;4.30;;;;;;;-1.10;97.41;95372.01;108631;1282;22534;-86
2024/01/14 04:15:02;;;;;;;6.30;5.20;;;;;;;-1.10;97.40;95366.08;108471;1282;22689;-88
2024/01/14 04:17:29;;;;;;;5.10;4.60;;;;;;;-1.09;97.58;95373.78;108287;1283;138338;-88
2024/01/14 04:19:55;;;;;;;5.90;4.90;;;;;;;-1.07;97.51;95374.66;108451;1283;24397;-88
2024/01/14 04:22:22;;;;;;;6.10;5.10;;;;;;;-1.04;97.46;95370.48;108397;1283;139234;-87
2024/01/14 04:24:49;;;;;;;6.00;4.80;;;;;;;-1.03;97.58;95369.69;108540;1277;22568;-87
2024/01/14 04:27:15;;;;;;;5.10;4.60;;;;;;;-1.02;97.62;95382.33;108431;1283;22636;-88
2024/01/14 04:29:42;;;;;;;5.80;5.30;;;;;;;-1.00;97.80;95387.29;108289;1280;137501;-88
2024/01/14 04:32:09;;;;;;;6.80;5.90;;;;;;;-1.01;97.62;95390.96;108449;1275;25467;-88
2024/01/14 04:34:36;;;;;;;6.40;5.40;;;;;;;-1.01;97.90;95393.67;108345;1282;138505;-88
2024/01/14 04:37:03;;;;;;;6.40;5.70;;;;;;;-1.01;98.06;95380.04;108367;1283;24224;-87
2024/01/14 04:39:30;;;;;;;6.20;5.30;;;;;;;-0.99;97.92;95375.42;108402;1276;24961;-86
2024/01/14 04:41:57;;;;;;;5.40;4.90;;;;;;;-0.96;97.59;95376.35;108307;1275;138347;-86
2024/01/14 04:44:24;;;;;;;4.70;4.30;;;;;;;-0.95;97.77;95382.39;108338;1275;22513;-87
2024/01/14 04:46:50;;;;;;;6.00;5.00;;;;;;;-0.96;97.42;95365.35;108349;1275;138874;-87
2024/01/14 04:49:17;;;;;;;5.80;5.30;;;;;;;-0.98;97.89;95355.45;108443;1282;22555;-88
2024/01/14 04:51:44;;;;;;;7.10;5.20;;;;;;;-0.98;98.29;95357.34;108382;1280;22573;-87
2024/01/14 04:54:11;;;;;;;5.80;5.20;;;;;;;-0.97;98.63;95358.48;108335;1281;138249;-88
2024/01/14 04:56:39;;;;;;;6.80;5.30;;;;;;;-0.98;98.89;95346.48;108458;1275;24153;-86
2024/01/14 04:59:06;;;;;;;6.60;5.90;;;;;;;-1.00;99.44;95332.31;108262;1283;138856;-87
2024/01/14 05:01:32;;;;;;;5.30;4.70;;;;;;;-1.02;99.72;95327.46;108453;1280;23718;-88
2024/01/14 05:04:00;;;;;;;8.50;6.90;;;;;;;-1.06;99.89;95335.48;108380;1283;25545;-87
2024/01/14 05:06:27;;;;;;;7.20;6.00;;;;;;;-1.11;100.00;95341.02;108336;1278;137803;-88
2024/01/14 05:08:53;;;;;;;7.20;5.50;;;;;;;-1.13;100.00;95342.71;108483;1275;22557;-88
2024/01/14 05:11:21;;;;;;;6.40;5.50;;;;;;;-1.11;100.00;95353.95;108401;1275;139123;-88
2024/01/14 05:13:48;;;;;;;6.00;5.40;;;;;;;-1.10;100.00;95346.33;108496;1269;22589;-87
2024/01/14 05:16:15;;;;;;;222.60;93.80;;;;;;;-1.08;100.00;95346.67;108231;1281;138227;-86
2024/01/14 05:18:42;;;;;;;255.20;107.70;;;;;;;-1.06;100.00;95348.02;108505;1277;22570;-88
2024/01/14 05:21:14;;;;;;;185.30;77.10;;;;;;;-1.05;100.00;95342.66;108389;1282;22594;-88
2024/01/14 05:23:41;;;;;;;136.70;61.60;;;;;;;-1.05;100.00;95333.67;108292;1275;139671;-88
2024/01/14 05:26:08;;;;;;;645.30;264.00;;;;;;;-1.05;100.00;95333.48;108521;1280;22520;-87
2024/01/14 05:28:34;;;;;;;259.20;105.00;;;;;;;-1.04;100.00;95326.29;108353;1282;138929;-86
2024/01/14 05:31:01;;;;;;;116.20;50.90;;;;;;;-1.02;100.00;95334.05;108479;1277;22549;-86
2024/01/14 05:33:28;;;;;;;83.10;34.80;;;;;;;-1.01;100.00;95338.60;108445;1281;22550;-86
2024/01/14 05:35:55;;;;;;;49.90;21.20;;;;;;;-0.99;100.00;95346.52;108409;1278;139550;-88
2024/01/14 05:38:22;;;;;;;41.30;16.60;;;;;;;-0.98;100.00;95341.01;108487;1277;25991;-88
2024/01/14 05:40:49;;;;;;;23.00;10.30;;;;;;;-0.98;100.00;95344.11;108377;1272;138394;-86
2024/01/14 05:43:16;;;;;;;18.90;10.50;;;;;;;-1.00;100.00;95344.72;108500;1280;25508;-87
2024/01/14 05:45:42;;;;;;;88.70;44.50;;;;;;;-1.02;100.00;95342.20;108392;1281;23922;-86
2024/01/14 05:48:10;;;;;;;66.70;25.00;;;;;;;-1.03;100.00;95337.53;108292;1281;138671;-88
2024/01/14 05:50:36;;;;;;;44.10;16.20;;;;;;;-1.01;100.00;95339.59;108565;1275;22571;-87
2024/01/14 05:53:03;;;;;;;21.30;10.10;;;;;;;-1.02;100.00;95340.25;108456;1277;138839;-87
2024/01/14 05:55:30;;;;;;;29.00;13.90;;;;;;;-1.04;100.00;95341.02;108455;1277;22710;-85
2024/01/14 05:57:57;;;;;;;15.60;10.60;;;;;;;-1.05;100.00;95345.94;108421;1278;25696;-85
2024/01/14 06:00:23;;;;;;;13.30;8.90;;;;;;;-1.07;100.00;95349.33;108308;1275;138094;-86
2024/01/14 06:02:50;;;;;;;32.90;12.00;;;;;;;-1.10;100.00;95343.99;108471;1274;22972;-88
2024/01/14 06:05:17;;;;;;;24.70;10.10;;;;;;;-1.10;100.00;95337.23;108253;1282;138779;-88
2024/01/14 06:07:44;;;;;;;10.90;6.80;;;;;;;-1.10;100.00;95331.60;108441;1280;22751;-86
2024/01/14 06:10:11;;;;;;;15.50;10.40;;;;;;;-1.09;100.00;95333.65;108311;1280;138643;-87
2024/01/14 06:12:38;;;;;;;25.70;10.60;;;;;;;-1.04;100.00;95329.89;108554;1280;22725;-87
2024/01/14 06:15:06;;;;;;;46.40;27.30;;;;;;;-1.02;100.00;95334.29;108549;1275;22571;-86
2024/01/14 06:17:32;;;;;;;183.50;104.30;;;;;;;-1.02;100.00;95327.23;108365;1275;138561;-86
2024/01/14 06:19:59;;;;;;;63.40;36.60;;;;;;;-1.01;100.00;95327.16;108518;1277;23381;-86
2024/01/14 06:22:26;;;;;;;55.80;30.80;;;;;;;-1.00;100.00;95330.84;108360;1281;138673;-86
2024/01/14 06:24:52;;;;;;;30.50;16.10;;;;;;;-0.98;100.00;95334.95;108402;1273;22597;-86
2024/01/14 06:27:19;;;;;;;19.40;10.60;;;;;;;-0.96;100.00;95339.52;108367;1275;22779;-88
2024/01/14 06:29:46;;;;;;;13.30;7.90;;;;;;;-0.93;100.00;95339.36;108357;1262;139692;-89
2024/01/14 06:32:13;;;;;;;17.60;9.10;;;;;;;-0.89;100.00;95340.95;108526;1259;25568;-86
2024/01/14 06:34:41;;;;;;;32.50;14.40;;;;;;;-0.88;100.00;95338.48;108431;1275;138038;-86
2024/01/14 06:37:08;;;;;;;19.70;9.70;;;;;;;-0.87;100.00;95332.73;108657;1274;22635;-85
2024/01/14 06:39:35;;;;;;;29.00;13.70;;;;;;;-0.87;100.00;95329.58;108567;1278;25068;-88
2024/01/14 06:42:02;;;;;;;15.40;8.10;;;;;;;-0.86;100.00;95330.98;108320;1275;138668;-88
2024/01/14 06:44:28;;;;;;;15.70;8.10;;;;;;;-0.84;100.00;95332.27;108514;1277;22567;-88
2024/01/14 06:46:55;;;;;;;15.60;9.10;;;;;;;-0.80;100.00;95326.31;108391;1277;138751;-88
2024/01/14 06:49:22;;;;;;;18.50;10.10;;;;;;;-0.76;100.00;95321.55;108442;1281;22567;-87
2024/01/14 06:51:48;;;;;;;17.80;9.70;;;;;;;-0.75;100.00;95324.31;108508;1282;24354;-86
2024/01/14 06:54:15;;;;;;;11.00;7.80;;;;;;;-0.75;100.00;95327.38;108395;1282;137914;-88
2024/01/14 06:56:47;;;;;;;42.20;25.00;;;;;;;-0.74;100.00;95325.65;108650;1278;22551;-88
2024/01/14 06:59:14;;;;;;;45.70;18.70;;;;;;;-0.74;100.00;95330.38;108362;1275;139209;-87
2024/01/14 07:01:41;;;;;;;19.60;9.50;;;;;;;-0.72;100.00;95324.77;108446;1282;22539;-89
2024/01/14 07:04:09;;;;;;;13.40;7.20;;;;;;;-0.68;100.00;95320.98;108513;1275;138621;-88
2024/01/14 07:06:35;;;;;;;15.80;8.40;;;;;;;-0.64;100.00;95325.02;108497;1278;25434;-88
2024/01/14 07:09:02;;;;;;;14.80;7.60;;;;;;;-0.61;99.99;95328.20;108447;1282;22948;-88
2024/01/14 07:11:30;;;;;;;15.10;10.80;;;;;;;-0.60;100.00;95331.88;108399;1275;138475;-87
2024/01/14 07:13:58;;;;;;;32.80;16.10;;;;;;;-0.62;99.87;95339.98;108409;1282;22654;-87
2024/01/14 07:16:24;;;;;;;12.00;7.10;;;;;;;-0.62;100.00;95336.42;108313;1283;138279;-87
2024/01/14 07:18:51;;;;;;;17.70;8.60;;;;;;;-0.64;100.00;95336.80;108394;1282;22587;-87
2024/01/14 07:21:21;;;;;;;9.60;6.50;;;;;;;-0.67;100.00;95335.38;108261;1283;23997;-86
2024/01/14 07:23:47;;;;;;;12.00;8.00;;;;;;;-0.69;100.00;95330.95;108385;1283;137890;-88
2024/01/14 07:26:15;;;;;;;19.10;11.50;;;;;;;-0.72;100.00;95333.59;108483;1278;24439;-89
2024/01/14 07:28:44;;;;;;;11.70;7.40;;;;;;;-0.74;100.00;95334.80;108266;1276;139060;-89
2024/01/14 07:31:12;;;;;;;8.50;6.90;;;;;;;-0.75;100.00;95330.94;108403;1278;25434;-88
2024/01/14 07:33:39;;;;;;;34.10;13.60;;;;;;;-0.72;100.00;95334.10;108358;1282;22809;-88
2024/01/14 07:36:06;;;;;;;13.10;8.00;;;;;;;-0.68;100.00;95330.89;108459;1283;139205;-88
2024/01/14 07:38:33;;;;;;;12.70;7.90;;;;;;;-0.66;100.00;95323.15;108468;1275;22713;-88
2024/01/14 07:41:00;;;;;;;10.50;6.70;;;;;;;-0.62;100.00;95325.19;108332;1275;137917;-88
2024/01/14 07:43:27;;;;;;;10.30;7.60;;;;;;;-0.60;100.00;95328.95;108464;1275;22557;-87
2024/01/14 07:45:54;;;;;;;10.30;6.70;;;;;;;-0.61;100.00;95323.07;108491;1283;22576;-85
2024/01/14 07:48:21;;;;;;;11.70;10.50;;;;;;;-0.60;100.00;95316.67;108419;1283;138352;-85
2024/01/14 07:50:47;;;;;;;16.90;10.20;;;;;;;-0.57;100.00;95311.98;108526;1265;22894;-85
2024/01/14 07:53:16;;;;;;;15.30;8.60;;;;;;;-0.52;100.00;95306.45;108558;1278;138835;-85
2024/01/14 07:55:42;;;;;;;14.60;9.10;;;;;;;-0.51;99.95;95305.14;108520;1283;23030;-85
2024/01/14 07:58:12;;;;;;;9.00;6.20;;;;;;;-0.49;99.87;95297.16;108419;1275;137221;-86
2024/01/14 08:00:39;;;;;;;7.00;5.30;;;;;;;-0.48;99.54;95300.79;108549;1280;22572;-86
2024/01/14 08:03:06;;;;;;;7.80;5.40;;;;;;;-0.46;99.34;95300.94;108477;1283;22697;-88
2024/01/14 08:05:40;;;;;;;6.80;5.90;;;;;;;-0.42;99.61;95309.44;108318;1281;138371;-87
2024/01/14 08:08:07;;;;;;;8.70;5.40;;;;;;;-0.39;99.23;95304.39;108438;1275;22579;-87
2024/01/14 08:10:34;;;;;;;11.10;7.10;;;;;;;-0.37;98.90;95301.98;108458;1275;138007;-86
2024/01/14 08:13:03;;;;;;;8.20;5.90;;;;;;;-0.38;98.67;95304.77;108381;1282;22513;-86
2024/01/14 08:15:29;;;;;;;5.80;5.20;;;;;;;-0.38;98.43;95312.45;108673;1281;24859;-85
2024/01/14 08:17:56;;;;;;;6.70;4.90;;;;;;;-0.37;98.56;95304.73;108356;1283;137820;-86
2024/01/14 08:20:22;;;;;;;6.60;4.90;;;;;;;-0.35;98.51;95311.30;108390;1276;22631;-85
2024/01/14 08:22:49;;;;;;;5.30;4.60;;;;;;;-0.33;98.52;95308.05;108272;1281;138214;-85
2024/01/14 08:25:16;;;;;;;6.40;4.60;;;;;;;-0.32;98.40;95315.83;108353;1282;22549;-85
2024/01/14 08:27:42;;;;;;;7.40;5.20;;;;;;;-0.33;98.29;95318.64;108409;1275;23149;-85
2024/01/14 08:30:10;;;;;;;5.40;4.20;;;;;;;-0.32;98.35;95311.17;108480;1279;150107;-86
2024/01/14 08:32:36;;;;;;;42.40;27.70;;;;;;;-0.29;98.04;95318.09;108346;1275;24230;-87
2024/01/14 08:35:03;;;;;;;12.50;8.40;;;;;;;-0.24;97.99;95309.33;108319;1281;138475;-86
2024/01/14 08:37:30;;;;;;;7.10;5.80;;;;;;;-0.21;97.55;95312.81;108512;1282;22532;-85
2024/01/14 08:39:59;;;;;;;13.00;7.80;;;;;;;-0.20;97.56;95314.56;108622;1278;25433;-85
2024/01/14 08:42:28;;;;;;;16.40;9.60;;;;;;;-0.18;97.60;95313.48;108478;1278;138477;-85
2024/01/14 08:44:55;;;;;;;18.50;11.70;;;;;;;-0.14;97.24;95321.36;108664;1277;22656;-85
2024/01/14 08:47:21;;;;;;;15.70;9.00;;;;;;;-0.11;97.13;95313.87;108326;1281;138537;-85
2024/01/14 08:49:49;;;;;;;11.70;7.60;;;;;;;-0.07;97.16;95319.23;108492;1275;22534;-85
2024/01/14 08:52:16;;;;;;;24.30;9.50;;;;;;;-0.04;96.57;95314.22;108381;1283;137981;-85
2024/01/14 08:54:43;;;;;;;28.80;10.70;;;;;;;-0.04;96.09;95315.05;108473;1275;25438;-85
2024/01/14 08:57:11;;;;;;;47.40;21.40;;;;;;;-0.02;95.93;95302.13;108564;1275;22647;-85
2024/01/14 08:59:37;;;;;;;62.20;23.40;;;;;;;0.01;95.58;95312.09;108347;1275;138993;-86
2024/01/14 09:02:04;;;;;;;10.20;6.60;;;;;;;0.02;95.03;95320.21;108423;1282;22539;-87
2024/01/14 09:04:31;;;;;;;19.30;8.10;;;;;;;0.00;95.20;95317.27;108308;1282;137714;-87
2024/01/14 09:06:57;;;;;;;29.40;11.30;;;;;;;-0.03;95.38;95313.14;108508;1275;22597;-87
2024/01/14 09:09:24;;;;;;;29.20;10.80;;;;;;;-0.04;95.47;95324.63;108460;1282;22530;-87
2024/01/14 09:11:52;;;;;;;33.20;16.00;;;;;;;-0.01;95.29;95323.85;108285;1281;138664;-87
2024/01/14 09:14:19;;;;;;;10.20;6.70;;;;;;;-0.01;95.07;95325.83;108459;1281;22723;-86
2024/01/14 09:16:45;;;;;;;13.20;6.20;;;;;;;-0.01;95.02;95321.92;108309;1275;138151;-86
2024/01/14 09:19:12;;;;;;;53.00;24.50;;;;;;;0.00;95.06;95320.02;108422;1281;22571;-85
2024/01/14 09:21:39;;;;;;;55.70;18.40;;;;;;;0.01;95.59;95327.83;108418;1282;22547;-87
2024/01/14 09:24:06;;;;;;;36.50;13.10;;;;;;;0.00;95.18;95325.42;108310;1277;138223;-87
2024/01/14 09:26:33;;;;;;;34.40;11.60;;;;;;;0.02;95.28;95332.95;108481;1281;22620;-87
2024/01/14 09:28:59;;;;;;;63.80;18.50;;;;;;;0.04;94.99;95339.09;108347;1282;138485;-86
2024/01/14 09:31:27;;;;;;;259.20;103.10;;;;;;;0.05;94.57;95337.98;108423;1282;22634;-86
2024/01/14 09:33:54;;;;;;;65.60;24.40;;;;;;;0.05;94.98;95341.50;108428;1282;22530;-86
2024/01/14 09:36:21;;;;;;;57.30;20.30;;;;;;;0.03;94.75;95342.86;108524;1277;138150;-85
2024/01/14 09:38:48;;;;;;;43.00;17.70;;;;;;;0.04;94.82;95335.52;108672;1274;22667;-85
2024/01/14 09:41:25;;;;;;;22.80;10.60;;;;;;;0.07;95.08;95336.34;108573;1282;138915;-85
2024/01/14 09:43:52;;;;;;;16.00;8.50;;;;;;;0.15;95.01;95328.80;108646;1282;23308;-87
2024/01/14 09:46:19;;;;;;;8.90;6.30;;;;;;;0.17;94.40;95336.83;108364;1281;137668;-87
2024/01/14 09:48:47;;;;;;;18.80;8.90;;;;;;;0.16;94.66;95340.84;108521;1281;23734;-87
2024/01/14 09:51:15;;;;;;;75.70;26.90;;;;;;;0.14;94.68;95341.36;108439;1281;22654;-87
2024/01/14 09:53:42;;;;;;;35.20;13.60;;;;;;;0.11;94.75;95335.14;108351;1276;138396;-87
2024/01/14 09:56:09;;;;;;;39.20;12.60;;;;;;;0.12;94.63;95325.40;108370;1275;22530;-87
2024/01/14 09:58:36;;;;;;;23.70;9.60;;;;;;;0.13;94.48;95324.17;108438;1281;139660;-85
2024/01/14 10:01:04;;;;;;;12.10;7.00;;;;;;;0.15;94.59;95324.39;108498;1281;22532;-87
2024/01/14 10:03:30;;;;;;;66.80;23.60;;;;;;;0.14;94.17;95327.91;108408;1275;22538;-87
2024/01/14 10:05:57;;;;;;;17.10;7.70;;;;;;;0.11;94.14;95325.44;108318;1281;138299;-87
2024/01/14 10:08:24;;;;;;;13.20;7.80;;;;;;;0.12;94.35;95323.27;108438;1282;22566;-87
2024/01/14 10:10:52;;;;;;;11.70;6.70;;;;;;;0.12;94.57;95326.66;108309;1275;137962;-88
2024/01/14 10:13:22;;;;;;;14.10;8.30;;;;;;;0.12;94.83;95324.16;108451;1282;22575;-87
2024/01/14 10:15:49;;;;;;;12.30;7.70;;;;;;;0.11;94.63;95323.23;108576;1275;22601;-85
2024/01/14 10:18:19;;;;;;;8.20;5.80;;;;;;;0.10;94.44;95322.10;108478;1281;137639;-85
2024/01/14 10:20:47;;;;;;;7.10;5.70;;;;;;;0.12;94.58;95324.30;108615;1281;24171;-85
2024/01/14 10:23:16;;;;;;;7.00;5.80;;;;;;;0.12;93.92;95319.05;108504;1278;137910;-84
2024/01/14 10:25:46;;;;;;;21.50;10.20;;;;;;;0.08;94.51;95318.06;108584;1279;22534;-86
2024/01/14 10:28:13;;;;;;;71.10;31.30;;;;;;;0.09;94.61;95315.29;108369;1281;137863;-86
2024/01/14 10:30:39;;;;;;;20.80;11.90;;;;;;;0.13;94.49;95319.98;108577;1282;22714;-86
2024/01/14 10:33:06;;;;;;;7.70;5.50;;;;;;;0.17;94.34;95313.64;108409;1282;22670;-85
2024/01/14 10:35:33;;;;;;;8.50;6.70;;;;;;;0.15;94.10;95316.67;108348;1282;138074;-87
2024/01/14 10:38:01;;;;;;;55.10;25.80;;;;;;;0.13;94.20;95321.30;108423;1282;22538;-86
2024/01/14 10:40:27;;;;;;;28.80;15.80;;;;;;;0.13;94.32;95323.92;108321;1281;137841;-86
2024/01/14 10:42:54;;;;;;;72.80;23.30;;;;;;;0.12;94.33;95324.17;108449;1281;22647;-87
2024/01/14 10:45:22;;;;;;;10.60;7.50;;;;;;;0.09;94.05;95320.20;108399;1268;22575;-87
2024/01/14 10:47:49;;;;;;;15.90;9.30;;;;;;;0.06;93.82;95321.88;108333;1282;137930;-85
2024/01/14 10:50:17;;;;;;;9.40;8.10;;;;;;;0.07;94.28;95324.50;108389;1281;22541;-85
2024/01/14 10:52:48;;;;;;;33.50;13.80;;;;;;;0.08;94.25;95321.67;108344;1281;138077;-86
2024/01/14 10:55:34;;;;;;;19.30;8.70;;;;;;;0.08;94.32;95315.19;108471;1281;23917;-86
2024/01/14 10:58:03;;;;;;;216.40;76.50;;;;;;;0.07;94.31;95297.78;108486;1281;24297;-85
2024/01/14 11:00:34;;;;;;;29.40;14.20;;;;;;;0.06;94.57;95310.28;108391;1278;138185;-85
2024/01/14 11:03:04;;;;;;;17.00;10.20;;;;;;;0.08;94.79;95317.41;108518;1274;22523;-84
2024/01/14 11:05:32;;;;;;;24.10;12.80;;;;;;;0.11;95.02;95312.19;108316;1278;138059;-87
2024/01/14 11:08:00;;;;;;;18.00;9.20;;;;;;;0.11;94.83;95308.92;108414;1278;22553;-86
2024/01/14 11:10:28;;;;;;;9.40;7.20;;;;;;;0.11;94.52;95306.21;108270;1275;137599;-86
2024/01/14 11:13:17;;;;;;;11.90;8.10;;;;;;;0.11;94.59;95300.43;108382;1283;22606;-86